Time;durP1;ratioP1;P1;durP2;ratioP2;P2;SDS_P1;SDS_P2;PMS_P1;PMS_P2;Temp;Humidity;BMP_temperature;BMP_pressure;BME280_temperature;BME280_humidity;BME280_pressure;Samples;Min_cycle;Max_cycle;Signal;HPM_P1;HPM_P2
2023/03/25 00:00:57;;;;;;;0.60;0.60;;;9.50;99.90;;;;;;5050748;28;20117;-78
2023/03/25 00:03:25;;;;;;;0.60;0.60;;;9.50;99.90;;;;;;5055820;28;20048;-78
2023/03/25 00:05:52;;;;;;;0.60;0.60;;;9.50;99.90;;;;;;5039230;28;20192;-78
2023/03/25 00:08:18;;;;;;;0.60;0.60;;;9.50;99.90;;;;;;5036811;28;22741;-79
2023/03/25 00:10:43;;;;;;;0.60;0.60;;;9.60;99.90;;;;;;5056951;28;20086;-77
2023/03/25 00:13:12;;;;;;;0.68;0.68;;;9.60;99.90;;;;;;5037435;28;20082;-78
2023/03/25 00:15:44;;;;;;;0.70;0.70;;;9.60;99.90;;;;;;5039320;28;20056;-78
2023/03/25 00:18:11;;;;;;;0.70;0.70;;;9.50;99.90;;;;;;5038413;28;20664;-78
2023/03/25 00:20:39;;;;;;;0.60;0.60;;;9.60;99.90;;;;;;5035754;28;20489;-79
2023/03/25 00:23:06;;;;;;;0.60;0.60;;;9.60;99.90;;;;;;5054991;28;20085;-78
2023/03/25 00:25:33;;;;;;;0.60;0.60;;;9.60;99.90;;;;;;5058002;28;20040;-79
2023/03/25 00:27:59;;;;;;;0.60;0.60;;;9.60;99.90;;;;;;5057305;28;20131;-79
2023/03/25 00:30:25;;;;;;;0.60;0.60;;;9.60;99.90;;;;;;5050327;28;20050;-77
2023/03/25 00:32:56;;;;;;;0.60;0.60;;;9.60;99.90;;;;;;5058084;28;20052;-78
2023/03/25 00:35:22;;;;;;;0.60;0.60;;;9.60;99.90;;;;;;5053495;28;20040;-78
2023/03/25 00:37:56;;;;;;;0.60;0.60;;;9.60;99.90;;;;;;5041460;28;20047;-79
2023/03/25 00:40:22;;;;;;;0.70;0.70;;;9.60;99.90;;;;;;5053205;28;20087;-79
2023/03/25 00:42:48;;;;;;;0.60;0.60;;;9.60;99.90;;;;;;5040907;28;20077;-78
2023/03/25 00:45:15;;;;;;;0.60;0.60;;;9.60;99.90;;;;;;5056819;28;20041;-78
2023/03/25 00:47:42;;;;;;;0.60;0.60;;;9.70;99.90;;;;;;5052940;28;20059;-78
2023/03/25 00:50:08;;;;;;;0.60;0.60;;;9.70;99.90;;;;;;5053722;28;20553;-78
2023/03/25 00:52:35;;;;;;;0.70;0.70;;;9.70;99.90;;;;;;5068302;28;20075;-78
2023/03/25 00:55:03;;;;;;;0.70;0.70;;;9.70;99.90;;;;;;5074793;28;20509;-80
2023/03/25 00:57:29;;;;;;;0.60;0.60;;;9.70;99.90;;;;;;5056060;28;20052;-77
2023/03/25 00:59:55;;;;;;;0.70;0.70;;;9.70;99.90;;;;;;5069858;28;20126;-79
2023/03/25 01:02:22;;;;;;;0.60;0.60;;;9.70;99.90;;;;;;5075631;28;20059;-78
2023/03/25 01:04:48;;;;;;;0.60;0.60;;;9.60;99.90;;;;;;5055261;28;20052;-78
2023/03/25 01:07:19;;;;;;;0.60;0.60;;;9.60;99.90;;;;;;5074149;28;20036;-79
2023/03/25 01:09:46;;;;;;;0.60;0.60;;;9.70;99.90;;;;;;5073466;28;20123;-79
2023/03/25 01:12:13;;;;;;;0.60;0.60;;;9.70;99.90;;;;;;5043996;28;20044;-77
2023/03/25 01:14:39;;;;;;;0.60;0.60;;;9.70;99.90;;;;;;5076335;28;20051;-78
2023/03/25 01:17:05;;;;;;;0.60;0.60;;;9.70;99.90;;;;;;5074346;28;20047;-78
2023/03/25 01:19:30;;;;;;;0.60;0.60;;;9.70;99.90;;;;;;5073148;28;20064;-78
2023/03/25 01:21:56;;;;;;;0.60;0.60;;;9.70;99.90;;;;;;5054884;28;20152;-78
2023/03/25 01:24:22;;;;;;;0.60;0.60;;;9.60;99.90;;;;;;5055584;28;20710;-78
2023/03/25 01:26:48;;;;;;;0.60;0.60;;;9.50;99.90;;;;;;5074876;28;20052;-78
2023/03/25 01:29:16;;;;;;;0.60;0.60;;;9.50;99.90;;;;;;5074286;28;20138;-79
2023/03/25 01:31:43;;;;;;;0.60;0.60;;;9.50;99.90;;;;;;5072723;28;20055;-78
2023/03/25 01:34:09;;;;;;;0.60;0.60;;;9.50;99.90;;;;;;5051336;28;20047;-77
2023/03/25 01:36:38;;;;;;;0.60;0.60;;;9.60;99.90;;;;;;5076048;28;20040;-77
2023/03/25 01:39:05;;;;;;;0.60;0.60;;;9.50;99.90;;;;;;5055328;28;20056;-78
2023/03/25 01:41:33;;;;;;;0.70;0.70;;;9.50;99.90;;;;;;5049722;28;20044;-78
2023/03/25 01:44:17;;;;;;;0.60;0.60;;;9.50;99.90;;;;;;5072758;28;20501;-78
2023/03/25 01:46:44;;;;;;;0.60;0.60;;;9.50;99.90;;;;;;5037846;28;20665;-79
2023/03/25 01:49:14;;;;;;;0.60;0.60;;;9.40;99.90;;;;;;5056558;28;20051;-78
2023/03/25 01:51:44;;;;;;;0.60;0.60;;;9.30;99.90;;;;;;5076349;28;20622;-78
2023/03/25 01:54:11;;;;;;;0.60;0.60;;;9.30;99.90;;;;;;5057031;28;20054;-78
2023/03/25 01:56:41;;;;;;;0.60;0.60;;;9.30;99.90;;;;;;5053858;28;20471;-77
2023/03/25 01:59:07;;;;;;;0.60;0.60;;;9.20;99.90;;;;;;5071556;28;20044;-77
2023/03/25 02:01:35;;;;;;;0.60;0.60;;;9.20;99.90;;;;;;5053843;28;20135;-78
2023/03/25 02:04:10;;;;;;;0.60;0.60;;;9.20;99.90;;;;;;5066888;28;20083;-79
2023/03/25 02:06:45;;;;;;;0.60;0.60;;;9.10;99.90;;;;;;5056748;28;20044;-79
2023/03/25 02:09:14;;;;;;;0.60;0.60;;;9.00;99.90;;;;;;5075839;28;20048;-79
2023/03/25 02:11:39;;;;;;;0.60;0.60;;;9.00;99.90;;;;;;5070516;28;20134;-78
2023/03/25 02:14:13;;;;;;;0.60;0.60;;;9.00;99.90;;;;;;5072960;28;20047;-78
2023/03/25 02:17:14;;;;;;;0.60;0.60;;;9.00;99.90;;;;;;5054304;28;20131;-77
2023/03/25 02:20:07;;;;;;;0.60;0.60;;;8.90;99.90;;;;;;5077556;28;20044;-77
2023/03/25 02:23:12;;;;;;;0.60;0.60;;;8.90;99.90;;;;;;5074401;28;20043;-78
2023/03/25 02:26:08;;;;;;;0.60;0.60;;;8.80;99.90;;;;;;4992425;28;20046;-78
2023/03/25 02:29:00;;;;;;;0.60;0.60;;;8.80;99.90;;;;;;4980045;28;20050;-78
2023/03/25 02:31:41;;;;;;;0.60;0.60;;;8.80;99.90;;;;;;5066672;28;20123;-78
2023/03/25 02:34:36;;;;;;;0.60;0.60;;;8.80;99.90;;;;;;5072842;28;20760;-77
2023/03/25 02:37:21;;;;;;;0.60;0.60;;;8.70;99.90;;;;;;5070877;28;20051;-77
2023/03/25 02:39:53;;;;;;;0.60;0.60;;;8.80;99.90;;;;;;5074383;28;20048;-78
2023/03/25 02:42:21;;;;;;;0.60;0.60;;;8.70;99.90;;;;;;5072396;28;20673;-78
2023/03/25 02:44:57;;;;;;;0.60;0.60;;;8.80;99.90;;;;;;5074936;28;20058;-77
2023/03/25 02:47:28;;;;;;;0.60;0.60;;;8.90;99.90;;;;;;5073365;28;20098;-77
2023/03/25 02:50:03;;;;;;;0.60;0.60;;;8.70;99.90;;;;;;5055289;28;20116;-77
2023/03/25 02:52:37;;;;;;;0.60;0.60;;;8.80;99.90;;;;;;5074801;28;20048;-77
2023/03/25 02:55:08;;;;;;;0.60;0.60;;;8.80;99.90;;;;;;5075729;28;20575;-77
2023/03/25 02:57:37;;;;;;;0.60;0.60;;;8.70;99.90;;;;;;5053303;28;20125;-78
2023/03/25 03:00:14;;;;;;;0.60;0.60;;;8.60;99.90;;;;;;5072294;28;20485;-78
2023/03/25 03:02:45;;;;;;;0.50;0.50;;;8.70;99.90;;;;;;5052450;28;20201;-78
2023/03/25 03:05:27;;;;;;;0.60;0.60;;;8.70;99.90;;;;;;5056856;28;20048;-77
2023/03/25 03:08:17;;;;;;;0.60;0.60;;;8.60;99.90;;;;;;5073558;28;20163;-78
2023/03/25 03:11:05;;;;;;;0.60;0.60;;;8.70;99.90;;;;;;5070716;28;20139;-78
2023/03/25 03:13:59;;;;;;;0.60;0.60;;;8.70;99.90;;;;;;5071685;28;20043;-78
2023/03/25 03:16:47;;;;;;;0.60;0.60;;;8.80;99.90;;;;;;5070674;28;20048;-78
2023/03/25 03:19:45;;;;;;;0.57;0.57;;;8.80;99.90;;;;;;5072651;28;20571;-78
2023/03/25 03:22:13;;;;;;;0.60;0.60;;;8.70;99.90;;;;;;5039766;28;20557;-78
2023/03/25 03:25:06;;;;;;;0.60;0.60;;;8.70;99.90;;;;;;5068740;28;20512;-78
2023/03/25 03:27:46;;;;;;;0.60;0.60;;;8.70;99.90;;;;;;5073056;28;20583;-78
2023/03/25 03:30:19;;;;;;;0.60;0.60;;;8.70;99.90;;;;;;5056671;28;20548;-78
2023/03/25 03:32:52;;;;;;;0.60;0.60;;;8.60;99.90;;;;;;5072270;28;20044;-78
2023/03/25 03:35:32;;;;;;;0.60;0.60;;;8.70;99.90;;;;;;5071514;28;20101;-78
2023/03/25 03:38:02;;;;;;;0.60;0.60;;;8.70;99.90;;;;;;5070543;28;22139;-78
2023/03/25 03:40:31;;;;;;;0.60;0.60;;;8.80;99.90;;;;;;5054489;28;20079;-78
2023/03/25 03:43:03;;;;;;;0.60;0.60;;;8.80;99.90;;;;;;5067327;28;20044;-79
2023/03/25 03:45:51;;;;;;;0.60;0.60;;;8.80;99.90;;;;;;5055122;28;20247;-78
2023/03/25 03:48:27;;;;;;;0.60;0.60;;;8.90;99.90;;;;;;5073367;28;20036;-79
2023/03/25 03:50:57;;;;;;;0.50;0.50;;;8.90;99.90;;;;;;5072113;28;20127;-78
2023/03/25 03:53:29;;;;;;;0.60;0.60;;;8.90;99.90;;;;;;5073042;28;20036;-79
2023/03/25 03:56:20;;;;;;;0.60;0.60;;;8.90;99.90;;;;;;5071582;28;20047;-79
2023/03/25 03:58:52;;;;;;;0.60;0.60;;;8.90;99.90;;;;;;5070608;28;20048;-78
2023/03/25 04:01:46;;;;;;;0.60;0.60;;;8.90;99.90;;;;;;5053574;28;20055;-78
2023/03/25 04:04:19;;;;;;;0.50;0.50;;;8.90;99.90;;;;;;5069692;28;20044;-78
2023/03/25 04:07:00;;;;;;;0.60;0.60;;;8.90;99.90;;;;;;5074759;28;20110;-77
2023/03/25 04:09:39;;;;;;;0.60;0.60;;;8.90;99.90;;;;;;5073694;28;20455;-78
2023/03/25 04:12:09;;;;;;;0.50;0.50;;;8.80;99.90;;;;;;5072518;28;20101;-78
2023/03/25 04:14:36;;;;;;;0.60;0.60;;;8.80;99.90;;;;;;5072814;28;20682;-78
2023/03/25 04:17:04;;;;;;;0.57;0.57;;;8.70;99.90;;;;;;5053870;28;20136;-79
2023/03/25 04:19:32;;;;;;;0.60;0.60;;;8.70;99.90;;;;;;5074983;28;20044;-79
2023/03/25 04:22:00;;;;;;;0.60;0.60;;;8.70;99.90;;;;;;5050052;28;20110;-79
2023/03/25 04:24:30;;;;;;;0.50;0.50;;;8.60;99.90;;;;;;5053594;28;20059;-79
2023/03/25 04:27:02;;;;;;;0.60;0.60;;;8.60;99.90;;;;;;5054219;28;20391;-78
2023/03/25 04:29:30;;;;;;;0.60;0.60;;;8.60;99.90;;;;;;5056653;28;20185;-78
2023/03/25 04:31:57;;;;;;;0.60;0.60;;;8.60;99.90;;;;;;5056313;28;20109;-79
2023/03/25 04:34:23;;;;;;;0.60;0.60;;;8.50;99.90;;;;;;5055028;28;20086;-78
2023/03/25 04:36:49;;;;;;;0.60;0.60;;;8.60;99.90;;;;;;5073353;28;20565;-79
2023/03/25 04:39:21;;;;;;;0.60;0.60;;;8.60;99.90;;;;;;5071464;28;20047;-79
2023/03/25 04:41:48;;;;;;;0.60;0.60;;;8.60;99.90;;;;;;5056478;28;20128;-78
2023/03/25 04:44:14;;;;;;;0.60;0.60;;;8.60;99.90;;;;;;5078611;28;20048;-78
2023/03/25 04:46:41;;;;;;;0.60;0.60;;;8.60;99.90;;;;;;5059954;28;20048;-77
2023/03/25 04:49:12;;;;;;;0.60;0.60;;;8.60;99.90;;;;;;5076444;28;20067;-78
2023/03/25 04:51:43;;;;;;;0.60;0.60;;;8.60;99.90;;;;;;5072968;28;20117;-78
2023/03/25 04:54:09;;;;;;;0.60;0.60;;;8.60;99.90;;;;;;5075896;28;20039;-78
2023/03/25 04:56:35;;;;;;;0.60;0.60;;;8.50;99.90;;;;;;5076403;28;20047;-78
2023/03/25 04:59:01;;;;;;;0.68;0.68;;;8.60;99.90;;;;;;5079044;28;20048;-78
2023/03/25 05:01:31;;;;;;;0.60;0.60;;;8.50;99.90;;;;;;5072958;28;20039;-78
2023/03/25 05:04:04;;;;;;;0.60;0.60;;;8.50;99.90;;;;;;5077323;28;20106;-79
2023/03/25 05:06:34;;;;;;;0.60;0.60;;;8.50;99.90;;;;;;5075826;28;20043;-78
2023/03/25 05:09:02;;;;;;;0.60;0.60;;;8.50;99.90;;;;;;5076562;28;20768;-78
2023/03/25 05:11:29;;;;;;;0.60;0.60;;;8.50;99.90;;;;;;5074327;28;20036;-78
2023/03/25 05:13:55;;;;;;;0.60;0.60;;;8.40;99.90;;;;;;5058414;28;20048;-79
2023/03/25 05:16:21;;;;;;;0.60;0.60;;;8.40;99.90;;;;;;5058833;28;20047;-78
2023/03/25 05:18:46;;;;;;;0.60;0.60;;;8.40;99.90;;;;;;5077582;28;20048;-78
2023/03/25 05:21:12;;;;;;;0.60;0.60;;;8.40;99.90;;;;;;5074567;28;20539;-78
2023/03/25 05:23:38;;;;;;;0.60;0.60;;;8.40;99.90;;;;;;5058934;28;20157;-78
2023/03/25 05:26:05;;;;;;;0.60;0.60;;;8.50;99.90;;;;;;5055130;28;20146;-79
2023/03/25 05:28:30;;;;;;;0.60;0.60;;;8.50;99.90;;;;;;5074338;28;20044;-78
2023/03/25 05:30:56;;;;;;;0.60;0.60;;;8.60;99.90;;;;;;5073040;28;20050;-78
2023/03/25 05:33:22;;;;;;;0.60;0.60;;;8.60;99.90;;;;;;5056835;28;20036;-78
2023/03/25 05:35:48;;;;;;;0.60;0.60;;;8.60;99.90;;;;;;5075979;28;20084;-78
2023/03/25 05:38:18;;;;;;;0.60;0.60;;;8.60;99.90;;;;;;5076019;28;20040;-78
2023/03/25 05:40:45;;;;;;;0.60;0.60;;;8.70;99.90;;;;;;5055813;28;20160;-77
2023/03/25 05:43:13;;;;;;;0.70;0.70;;;8.70;99.90;;;;;;5052315;28;20048;-78
2023/03/25 05:45:40;;;;;;;0.60;0.60;;;8.80;99.90;;;;;;5057226;28;20134;-78
2023/03/25 05:48:07;;;;;;;0.60;0.60;;;8.80;99.90;;;;;;5074758;28;20044;-78
2023/03/25 05:50:33;;;;;;;0.60;0.60;;;8.90;99.90;;;;;;5055141;28;20074;-78
2023/03/25 05:52:59;;;;;;;0.60;0.60;;;8.80;99.90;;;;;;5056836;28;20112;-79
2023/03/25 05:55:26;;;;;;;0.60;0.60;;;8.80;99.90;;;;;;5054984;28;20118;-78
2023/03/25 05:57:52;;;;;;;0.50;0.50;;;8.70;99.90;;;;;;5075351;28;20051;-78
2023/03/25 06:00:20;;;;;;;0.60;0.60;;;8.70;99.90;;;;;;5073030;28;20093;-79
2023/03/25 06:02:47;;;;;;;0.60;0.60;;;8.60;99.90;;;;;;5060473;28;20052;-79
2023/03/25 06:05:14;;;;;;;0.60;0.60;;;8.50;99.90;;;;;;5055525;28;20080;-79
2023/03/25 06:07:46;;;;;;;0.60;0.60;;;8.50;99.90;;;;;;5073529;28;20047;-80
2023/03/25 06:10:15;;;;;;;0.60;0.60;;;8.50;99.90;;;;;;5075113;28;20119;-79
2023/03/25 06:12:45;;;;;;;0.60;0.60;;;8.50;99.90;;;;;;5054925;28;20044;-79
2023/03/25 06:15:13;;;;;;;0.60;0.60;;;8.40;99.90;;;;;;5073586;28;20101;-80
2023/03/25 06:17:39;;;;;;;0.60;0.60;;;8.40;99.90;;;;;;5076441;28;20044;-79
2023/03/25 06:20:11;;;;;;;0.60;0.60;;;8.30;99.90;;;;;;5075169;28;20434;-78
2023/03/25 06:22:42;;;;;;;0.60;0.60;;;8.30;99.90;;;;;;5075977;28;20127;-80
2023/03/25 06:25:09;;;;;;;0.70;0.70;;;8.30;99.90;;;;;;5075500;28;20509;-78
2023/03/25 06:27:39;;;;;;;0.60;0.60;;;8.30;99.90;;;;;;5060401;28;20113;-78
2023/03/25 06:30:09;;;;;;;0.60;0.60;;;8.30;99.90;;;;;;5074949;28;20040;-78
2023/03/25 06:32:36;;;;;;;0.60;0.60;;;8.30;99.90;;;;;;5057456;28;20564;-78
2023/03/25 06:35:03;;;;;;;0.60;0.60;;;8.40;99.90;;;;;;5072359;28;20051;-79
2023/03/25 06:37:29;;;;;;;0.60;0.60;;;8.50;99.90;;;;;;5055030;28;20497;-77
2023/03/25 06:39:55;;;;;;;0.60;0.60;;;8.50;99.90;;;;;;5057593;28;20091;-77
2023/03/25 06:42:22;;;;;;;0.60;0.60;;;8.60;99.90;;;;;;5070210;28;20067;-80
2023/03/25 06:44:49;;;;;;;0.60;0.60;;;8.50;99.90;;;;;;5050825;28;20048;-78
2023/03/25 06:47:15;;;;;;;0.60;0.60;;;8.50;99.90;;;;;;5077044;28;20075;-77
2023/03/25 06:49:40;;;;;;;0.60;0.60;;;8.50;99.90;;;;;;5072552;28;20120;-79
2023/03/25 06:52:06;;;;;;;0.60;0.60;;;8.40;99.90;;;;;;5073836;28;20046;-79
2023/03/25 06:54:32;;;;;;;0.60;0.60;;;8.50;99.90;;;;;;5071253;28;20047;-79
2023/03/25 06:56:57;;;;;;;0.60;0.60;;;8.50;99.90;;;;;;5056362;28;20071;-78
2023/03/25 06:59:23;;;;;;;0.60;0.60;;;8.50;99.90;;;;;;5055282;28;20052;-79
2023/03/25 07:01:49;;;;;;;0.60;0.60;;;8.60;99.90;;;;;;5053728;28;20055;-79
2023/03/25 07:04:15;;;;;;;0.60;0.60;;;8.70;99.90;;;;;;5052528;28;20562;-78
2023/03/25 07:06:41;;;;;;;0.60;0.60;;;8.90;99.90;;;;;;5055344;28;20043;-79
2023/03/25 07:09:07;;;;;;;0.60;0.60;;;9.00;99.90;;;;;;5054932;28;20047;-79
2023/03/25 07:11:33;;;;;;;0.60;0.60;;;9.10;99.90;;;;;;5051227;28;20066;-79
2023/03/25 07:13:59;;;;;;;0.60;0.60;;;9.10;99.90;;;;;;5054484;28;20242;-80
2023/03/25 07:16:25;;;;;;;0.60;0.60;;;9.20;99.90;;;;;;5055144;28;20051;-80
2023/03/25 07:18:52;;;;;;;0.60;0.60;;;9.40;99.90;;;;;;5053671;28;20055;-80
2023/03/25 07:21:18;;;;;;;0.60;0.60;;;9.40;99.90;;;;;;5074380;28;20052;-78
2023/03/25 07:23:44;;;;;;;0.60;0.60;;;9.30;99.90;;;;;;5074144;28;20808;-79
2023/03/25 07:26:10;;;;;;;0.60;0.60;;;9.30;99.90;;;;;;5056486;28;20066;-79
2023/03/25 07:28:36;;;;;;;0.60;0.60;;;9.20;99.90;;;;;;5054504;28;20047;-79
2023/03/25 07:31:09;;;;;;;0.50;0.50;;;9.30;99.90;;;;;;5050777;28;20117;-79
2023/03/25 07:33:35;;;;;;;0.60;0.60;;;9.30;99.90;;;;;;5054148;28;20043;-80
2023/03/25 07:36:02;;;;;;;0.60;0.60;;;9.40;99.90;;;;;;5054938;28;20112;-80
2023/03/25 07:38:27;;;;;;;0.60;0.60;;;9.50;99.90;;;;;;5056240;28;20135;-81
2023/03/25 07:40:53;;;;;;;0.60;0.60;;;9.60;99.90;;;;;;5053120;28;20591;-79
2023/03/25 07:43:19;;;;;;;0.60;0.60;;;9.70;99.90;;;;;;5066218;28;20993;-78
2023/03/25 07:45:45;;;;;;;0.60;0.60;;;9.80;99.90;;;;;;5073876;28;20047;-78
2023/03/25 07:48:13;;;;;;;0.60;0.60;;;10.00;99.90;;;;;;5070187;28;20067;-78
2023/03/25 07:50:40;;;;;;;0.60;0.60;;;10.10;99.90;;;;;;5069467;28;20105;-79
2023/03/25 07:53:06;;;;;;;0.60;0.60;;;10.10;99.90;;;;;;5073063;28;20048;-78
2023/03/25 07:55:31;;;;;;;0.60;0.60;;;10.00;99.90;;;;;;5073274;28;20036;-78
2023/03/25 07:57:59;;;;;;;0.50;0.50;;;10.00;99.90;;;;;;5054057;28;20086;-79
2023/03/25 08:00:25;;;;;;;0.60;0.60;;;10.00;99.90;;;;;;5072925;28;20044;-81
2023/03/25 08:02:51;;;;;;;0.60;0.60;;;10.20;99.90;;;;;;5049127;28;20155;-75
2023/03/25 08:05:20;;;;;;;0.60;0.60;;;10.10;99.90;;;;;;5056460;28;20087;-81
2023/03/25 08:07:47;;;;;;;0.60;0.60;;;9.90;99.90;;;;;;5054590;28;20159;-80
2023/03/25 08:10:14;;;;;;;0.50;0.50;;;9.60;99.90;;;;;;5037251;28;20513;-82
2023/03/25 08:12:40;;;;;;;0.60;0.60;;;9.50;99.90;;;;;;5053745;28;20125;-80
2023/03/25 08:15:07;;;;;;;0.60;0.60;;;9.50;99.90;;;;;;5059630;28;20076;-79
2023/03/25 08:17:35;;;;;;;0.60;0.60;;;9.50;99.90;;;;;;5077894;28;20044;-82
2023/03/25 08:20:03;;;;;;;0.60;0.60;;;9.60;99.90;;;;;;5059702;28;20055;-78
2023/03/25 08:22:29;;;;;;;0.60;0.60;;;9.60;99.90;;;;;;5076515;28;20125;-80
2023/03/25 08:24:55;;;;;;;0.60;0.60;;;9.50;99.90;;;;;;5077763;28;20043;-83
2023/03/25 08:27:20;;;;;;;0.60;0.60;;;9.60;99.90;;;;;;5076993;28;20044;-80
2023/03/25 08:29:53;;;;;;;0.50;0.50;;;9.70;99.90;;;;;;5076984;28;20072;-78
2023/03/25 08:32:19;;;;;;;0.60;0.60;;;9.90;99.90;;;;;;5055552;28;20086;-80
2023/03/25 08:34:45;;;;;;;0.50;0.50;;;10.00;99.90;;;;;;5078135;28;20098;-80
2023/03/25 08:37:12;;;;;;;0.60;0.60;;;10.10;99.90;;;;;;5058729;28;20722;-80
2023/03/25 08:39:38;;;;;;;0.60;0.60;;;10.00;99.90;;;;;;5074008;28;20044;-80
2023/03/25 08:42:08;;;;;;;0.60;0.60;;;10.10;99.90;;;;;;5055102;28;20181;-80
2023/03/25 08:44:34;;;;;;;0.60;0.60;;;10.40;99.90;;;;;;5060545;28;20127;-79
2023/03/25 08:47:00;;;;;;;0.60;0.60;;;10.50;99.90;;;;;;5077119;28;20044;-79
2023/03/25 08:49:26;;;;;;;0.60;0.60;;;10.40;99.90;;;;;;5056144;28;20045;-79
2023/03/25 08:51:52;;;;;;;0.60;0.60;;;10.10;99.90;;;;;;5054568;28;20126;-79
2023/03/25 08:54:18;;;;;;;0.60;0.60;;;9.90;99.90;;;;;;5073661;28;20078;-79
2023/03/25 08:56:43;;;;;;;0.60;0.60;;;9.90;99.90;;;;;;5076870;28;20391;-79
2023/03/25 08:59:11;;;;;;;0.60;0.60;;;9.90;99.90;;;;;;5056829;28;20083;-79
2023/03/25 09:01:37;;;;;;;0.60;0.60;;;9.90;99.90;;;;;;5056555;28;20075;-80
2023/03/25 09:04:03;;;;;;;0.60;0.60;;;10.00;99.90;;;;;;5049058;28;20056;-79
2023/03/25 09:06:28;;;;;;;0.60;0.60;;;9.90;99.90;;;;;;5070848;28;20032;-82
2023/03/25 09:08:54;;;;;;;0.60;0.60;;;10.10;99.90;;;;;;5050661;28;20058;-77
2023/03/25 09:11:21;;;;;;;0.60;0.60;;;10.80;99.90;;;;;;5073464;28;20481;-78
2023/03/25 09:13:46;;;;;;;0.50;0.50;;;10.80;99.90;;;;;;5075893;28;20040;-80
2023/03/25 09:16:12;;;;;;;0.50;0.50;;;11.10;99.90;;;;;;5073972;28;20512;-81
2023/03/25 09:18:38;;;;;;;0.60;0.60;;;11.20;99.90;;;;;;5040837;28;20567;-80
2023/03/25 09:21:04;;;;;;;0.50;0.50;;;11.10;99.90;;;;;;5057891;28;20063;-78
2023/03/25 09:23:29;;;;;;;0.60;0.60;;;11.00;99.90;;;;;;5075307;28;20048;-80
2023/03/25 09:26:00;;;;;;;0.50;0.50;;;10.70;99.90;;;;;;5075992;28;20078;-79
2023/03/25 09:28:26;;;;;;;0.50;0.50;;;10.60;99.90;;;;;;5076002;28;20047;-81
2023/03/25 09:30:53;;;;;;;0.60;0.60;;;10.60;99.90;;;;;;5070808;28;20056;-78
2023/03/25 09:33:19;;;;;;;0.50;0.50;;;10.40;99.90;;;;;;5040181;28;20764;-79
2023/03/25 09:35:45;;;;;;;0.50;0.50;;;10.30;99.90;;;;;;5057446;28;20134;-80
2023/03/25 09:38:11;;;;;;;0.60;0.60;;;10.50;99.90;;;;;;5073462;28;20043;-80
2023/03/25 09:40:41;;;;;;;0.60;0.60;;;10.40;99.90;;;;;;5048106;28;20607;-81
2023/03/25 09:43:18;;;;;;;0.60;0.60;;;10.20;99.90;;;;;;5056449;28;20048;-81
2023/03/25 09:45:46;;;;;;;0.60;0.60;;;10.10;99.90;;;;;;5057705;28;20054;-79
2023/03/25 09:48:18;;;;;;;0.60;0.60;;;10.00;99.90;;;;;;5074751;28;20048;-80
2023/03/25 09:50:45;;;;;;;0.60;0.60;;;10.10;99.90;;;;;;5056157;28;20044;-80
2023/03/25 09:53:44;;;;;;;0.60;0.60;;;10.20;99.90;;;;;;5060109;28;20043;-78
2023/03/25 09:56:20;;;;;;;0.60;0.60;;;10.10;99.90;;;;;;5058476;28;20640;-80
2023/03/25 09:58:47;;;;;;;0.60;0.60;;;10.00;99.90;;;;;;5058828;28;20056;-79
2023/03/25 10:01:25;;;;;;;0.60;0.60;;;10.20;99.90;;;;;;5035701;28;20052;-78
2023/03/25 10:04:13;;;;;;;0.60;0.60;;;10.30;99.90;;;;;;5059245;28;20052;-77
2023/03/25 10:06:52;;;;;;;0.60;0.60;;;10.50;99.90;;;;;;5048978;28;20079;-82
2023/03/25 10:09:20;;;;;;;0.70;0.70;;;10.80;99.90;;;;;;5071224;28;20130;-82
2023/03/25 10:11:57;;;;;;;0.60;0.60;;;10.60;99.90;;;;;;5050372;28;20076;-78
2023/03/25 10:14:35;;;;;;;0.60;0.60;;;11.30;99.90;;;;;;5068565;28;20074;-77
2023/03/25 10:17:24;;;;;;;0.60;0.60;;;11.70;99.90;;;;;;5067310;28;20044;-78
2023/03/25 10:20:11;;;;;;;0.60;0.60;;;11.70;99.90;;;;;;5071603;28;20048;-78
2023/03/25 10:23:15;;;;;;;0.60;0.60;;;11.70;99.90;;;;;;5069224;28;20044;-76
2023/03/25 10:25:45;;;;;;;0.60;0.60;;;11.60;99.90;;;;;;5072988;28;20520;-82
2023/03/25 10:28:20;;;;;;;0.60;0.60;;;11.90;99.90;;;;;;5070550;28;20052;-77
2023/03/25 10:30:51;;;;;;;0.60;0.60;;;11.80;99.90;;;;;;5073481;28;20048;-82
2023/03/25 10:33:33;;;;;;;0.60;0.60;;;11.90;99.90;;;;;;5050514;28;20524;-80
2023/03/25 10:36:00;;;;;;;0.60;0.60;;;11.70;99.90;;;;;;5074803;28;20044;-81
2023/03/25 10:38:30;;;;;;;0.50;0.50;;;11.30;99.90;;;;;;5069525;28;20121;-80
2023/03/25 10:41:15;;;;;;;0.50;0.50;;;11.10;99.90;;;;;;5055409;28;20121;-83
2023/03/25 10:43:42;;;;;;;0.60;0.60;;;11.00;99.90;;;;;;5054897;28;20459;-79
2023/03/25 10:46:45;;;;;;;0.60;0.60;;;11.00;99.90;;;;;;5038237;28;20114;-84
2023/03/25 10:49:18;;;;;;;0.60;0.60;;;11.20;99.90;;;;;;5060509;28;20048;-79
2023/03/25 10:51:45;;;;;;;0.60;0.60;;;11.00;99.90;;;;;;5075448;28;20055;-79
2023/03/25 10:54:13;;;;;;;0.50;0.50;;;10.70;99.90;;;;;;5071725;28;20044;-79
2023/03/25 10:56:49;;;;;;;0.60;0.60;;;10.50;99.90;;;;;;5046818;28;20051;-79
2023/03/25 10:59:21;;;;;;;0.60;0.60;;;10.30;99.90;;;;;;5074004;28;20114;-80
2023/03/25 11:01:47;;;;;;;0.55;0.55;;;10.30;99.90;;;;;;5074232;28;20489;-79
2023/03/25 11:04:18;;;;;;;0.50;0.50;;;10.50;99.90;;;;;;5047280;28;20044;-81
2023/03/25 11:06:54;;;;;;;0.50;0.50;;;10.80;99.90;;;;;;5047858;28;20044;-84
2023/03/25 11:09:22;;;;;;;0.60;0.60;;;10.60;99.90;;;;;;5047222;28;20051;-83
2023/03/25 11:11:48;;;;;;;0.60;0.60;;;11.30;99.90;;;;;;5046490;28;20043;-79
2023/03/25 11:14:16;;;;;;;0.60;0.60;;;11.60;99.90;;;;;;5030798;28;20422;-80
2023/03/25 11:16:46;;;;;;;0.60;0.60;;;12.10;99.90;;;;;;5062575;28;20048;-79
2023/03/25 11:19:39;;;;;;;0.60;0.60;;;12.30;99.90;;;;;;5039068;28;20064;-82
2023/03/25 11:22:27;;;;;;;0.60;0.60;;;12.60;99.90;;;;;;5046113;28;20506;-82
2023/03/25 11:25:00;;;;;;;0.50;0.50;;;12.90;99.90;;;;;;5028371;28;20059;-84
2023/03/25 11:27:29;;;;;;;0.63;0.63;;;13.00;99.90;;;;;;5032377;28;20054;-81
2023/03/25 11:30:02;;;;;;;0.60;0.60;;;12.60;99.90;;;;;;5047284;28;20055;-78
2023/03/25 11:32:36;;;;;;;0.60;0.60;;;12.30;99.90;;;;;;5029472;28;20040;-76
2023/03/25 11:35:13;;;;;;;0.60;0.60;;;12.10;99.90;;;;;;5028269;28;20123;-77
2023/03/25 11:37:48;;;;;;;0.60;0.60;;;12.30;99.90;;;;;;5027057;28;20052;-81
2023/03/25 11:40:16;;;;;;;0.60;0.60;;;12.70;99.90;;;;;;5023611;28;20057;-80
2023/03/25 11:42:48;;;;;;;0.60;0.60;;;12.60;99.90;;;;;;5022249;28;20037;-79
2023/03/25 11:45:34;;;;;;;0.50;0.50;;;12.80;99.90;;;;;;5045367;28;20051;-79
2023/03/25 11:48:11;;;;;;;0.50;0.50;;;13.50;99.90;;;;;;5061717;28;20351;-78
2023/03/25 11:50:37;;;;;;;0.60;0.60;;;13.10;99.90;;;;;;5046984;28;20044;-81
2023/03/25 11:53:04;;;;;;;0.55;0.55;;;13.20;99.90;;;;;;5043701;28;20114;-79
2023/03/25 11:55:40;;;;;;;0.60;0.60;;;13.10;99.90;;;;;;5041548;28;20475;-77
2023/03/25 11:58:14;;;;;;;0.50;0.50;;;12.90;99.90;;;;;;5064387;28;20094;-78
2023/03/25 12:00:40;;;;;;;;;;;12.80;99.90;;;;;;5047045;28;20052;-79
2023/03/25 12:03:09;;;;;;;0.50;0.50;;;12.70;99.90;;;;;;5061244;28;19924;-80
2023/03/25 12:05:34;;;;;;;0.60;0.60;;;12.30;99.90;;;;;;5062569;28;20127;-81
2023/03/25 12:08:13;;;;;;;0.60;0.60;;;12.10;99.90;;;;;;5059916;28;20409;-80
2023/03/25 12:10:52;;;;;;;0.60;0.60;;;12.30;99.90;;;;;;5044584;28;20105;-83
2023/03/25 12:13:20;;;;;;;0.60;0.60;;;13.00;99.90;;;;;;5040068;28;20048;-79
2023/03/25 12:16:10;;;;;;;0.50;0.50;;;12.90;99.90;;;;;;5063636;28;20036;-82
2023/03/25 12:18:58;;;;;;;0.50;0.50;;;12.60;99.90;;;;;;5042094;28;20113;-81
2023/03/25 12:21:38;;;;;;;0.50;0.50;;;12.40;99.90;;;;;;5041547;28;20086;-79
2023/03/25 12:24:45;;;;;;;0.50;0.50;;;13.10;99.90;;;;;;5037696;28;20048;-81
2023/03/25 12:27:31;;;;;;;0.60;0.60;;;13.20;99.90;;;;;;5028424;28;20425;-76
2023/03/25 12:30:03;;;;;;;0.60;0.60;;;12.70;99.90;;;;;;5058850;28;20048;-82
2023/03/25 12:32:28;;;;;;;0.60;0.60;;;12.20;99.90;;;;;;5040196;28;20463;-83
2023/03/25 12:35:15;;;;;;;0.60;0.60;;;12.40;99.90;;;;;;5025260;28;20056;-81
2023/03/25 12:38:16;;;;;;;0.50;0.50;;;12.50;99.90;;;;;;5051441;28;20673;-82
2023/03/25 12:40:57;;;;;;;0.50;0.50;;;12.60;99.90;;;;;;5015454;28;20101;-80
2023/03/25 12:43:35;;;;;;;0.50;0.50;;;12.30;99.90;;;;;;5044072;28;20052;-80
2023/03/25 12:46:01;;;;;;;0.50;0.50;;;12.00;99.90;;;;;;5048999;28;20055;-80
2023/03/25 12:48:52;;;;;;;0.50;0.50;;;11.90;99.90;;;;;;5073161;28;20625;-83
2023/03/25 12:51:24;;;;;;;0.50;0.50;;;11.80;99.90;;;;;;5052209;28;20051;-80
2023/03/25 12:54:10;;;;;;;0.50;0.50;;;11.50;99.90;;;;;;5053072;28;20059;-82
2023/03/25 12:57:16;;;;;;;0.50;0.50;;;11.20;99.90;;;;;;5064731;28;20051;-80
2023/03/25 13:00:13;;;;;;;0.60;0.60;;;11.20;99.90;;;;;;5052586;28;20145;-81
2023/03/25 13:03:04;;;;;;;0.60;0.60;;;11.40;99.90;;;;;;5056580;28;20137;-82
2023/03/25 13:06:00;;;;;;;0.60;0.60;;;11.50;99.90;;;;;;5036494;28;20040;-81
2023/03/25 13:08:38;;;;;;;0.60;0.60;;;11.70;99.90;;;;;;5045472;28;20094;-80
2023/03/25 13:11:17;;;;;;;0.60;0.60;;;11.60;99.90;;;;;;5068758;28;20381;-79
2023/03/25 13:13:47;;;;;;;0.60;0.60;;;11.80;99.90;;;;;;5053481;28;20050;-78
2023/03/25 13:16:17;;;;;;;0.60;0.60;;;11.70;99.90;;;;;;5058882;28;20048;-81